LFLN/SYT METAR and TAF weather

Enter ICAO airport designator
Station Type Date Time Source
LFLN METAR 2019/04/19 10:30 UTC NOAA

LFLN 191030Z AUTO 19005KT 140V250 CAVOK 21/06 Q1025 NOSIG


Station Type Date Time Source
LFLN Decoded METAR 2019/04/19 10:30 UTC NOAA

Saint-Yan, France (LFLN) 46-25N 004-01E 244M
Apr 19, 2019 - 06:30 AM EDT / 2019.04.19 1030 UTC
Wind: from the S (190 degrees) at 6 MPH (5 KT) (direction variable):0
Visibility: greater than 7 mile(s):0
Temperature: 69 F (21 C)
Dew Point: 42 F (6 C)
Relative Humidity: 37%
Pressure (altimeter): 30.27 in. Hg (1025 hPa)
ob: LFLN 191030Z AUTO 19005KT 140V250 CAVOK 21/06 Q1025 NOSIG
cycle: 10

Station Type Date Time Source
LFLN TAF UTC NOAA

Error!

Example: see airport list